Avon, Mississippi
Current Conditions -  °F | °C
As of 12:53 AM on Thursday 23 Oct 2014 (Local Time) from KGLH Reporting Station
Clear Clear  
Wind Chill: 45°   Ceiling: Unl
Heat Index: 48°   Visibility: 10mi
Dew Point: 44°   Wind: 6mph
Humidity: 86%   Direction: 20°NNE
Pressure: 30.16"   Gusts: NA
Location:  33.23°N, 91.05°W
Report Text: KGLH 230553Z AUTO 02005KT 10SM CLR 09/07 A3016 RMK AO2 SLP219 T00890067 10167 20089 402330089 50002
Loading
Personal Weather Stations






























Interactive Weather Map New forecast layout! Learn more

10-Day Weather Forecast

Advertisements
Track Severe Weather on mobile